sensor_id;sensor_type;location;lat;lon;timestamp;P1;durP1;ratioP1;P2;durP2;ratioP2
76582;SDS011;65462;52.148;7.940;2023-02-18T00:01:36;17.60;;;8.30;;
76582;SDS011;65462;52.148;7.940;2023-02-18T00:04:01;15.73;;;8.90;;
76582;SDS011;65462;52.148;7.940;2023-02-18T00:06:28;22.10;;;9.03;;
76582;SDS011;65462;52.148;7.940;2023-02-18T00:08:55;20.90;;;10.07;;
76582;SDS011;65462;52.148;7.940;2023-02-18T00:11:23;19.20;;;10.33;;
76582;SDS011;65462;52.148;7.940;2023-02-18T00:13:49;21.23;;;10.43;;
76582;SDS011;65462;52.148;7.940;2023-02-18T00:16:25;26.37;;;12.10;;
76582;SDS011;65462;52.148;7.940;2023-02-18T00:18:55;21.57;;;12.17;;
76582;SDS011;65462;52.148;7.940;2023-02-18T00:21:22;24.07;;;13.20;;
76582;SDS011;65462;52.148;7.940;2023-02-18T00:23:47;24.77;;;14.13;;
76582;SDS011;65462;52.148;7.940;2023-02-18T00:26:14;25.57;;;14.87;;
76582;SDS011;65462;52.148;7.940;2023-02-18T00:28:40;26.30;;;15.10;;
76582;SDS011;65462;52.148;7.940;2023-02-18T00:31:10;26.50;;;15.67;;
76582;SDS011;65462;52.148;7.940;2023-02-18T00:33:37;28.13;;;16.03;;
76582;SDS011;65462;52.148;7.940;2023-02-18T00:36:04;25.00;;;15.10;;
76582;SDS011;65462;52.148;7.940;2023-02-18T00:38:31;29.53;;;16.90;;
76582;SDS011;65462;52.148;7.940;2023-02-18T00:40:56;30.07;;;16.60;;
76582;SDS011;65462;52.148;7.940;2023-02-18T00:43:22;27.17;;;16.37;;
76582;SDS011;65462;52.148;7.940;2023-02-18T00:45:47;29.77;;;16.37;;
76582;SDS011;65462;52.148;7.940;2023-02-18T00:48:13;28.37;;;16.57;;
76582;SDS011;65462;52.148;7.940;2023-02-18T00:50:38;30.20;;;16.83;;
76582;SDS011;65462;52.148;7.940;2023-02-18T00:53:03;28.03;;;16.97;;
76582;SDS011;65462;52.148;7.940;2023-02-18T00:55:28;28.40;;;17.20;;
76582;SDS011;65462;52.148;7.940;2023-02-18T00:57:54;30.67;;;17.37;;
76582;SDS011;65462;52.148;7.940;2023-02-18T01:00:19;29.57;;;17.17;;
76582;SDS011;65462;52.148;7.940;2023-02-18T01:02:44;32.43;;;18.23;;
76582;SDS011;65462;52.148;7.940;2023-02-18T01:05:10;30.60;;;17.27;;
76582;SDS011;65462;52.148;7.940;2023-02-18T01:07:35;32.73;;;17.10;;
76582;SDS011;65462;52.148;7.940;2023-02-18T01:10:00;28.17;;;17.27;;
76582;SDS011;65462;52.148;7.940;2023-02-18T01:12:26;30.33;;;16.27;;
76582;SDS011;65462;52.148;7.940;2023-02-18T01:14:51;33.27;;;17.73;;
76582;SDS011;65462;52.148;7.940;2023-02-18T01:17:16;33.97;;;16.73;;
76582;SDS011;65462;52.148;7.940;2023-02-18T01:19:41;33.77;;;17.23;;
76582;SDS011;65462;52.148;7.940;2023-02-18T01:22:07;29.13;;;16.87;;
76582;SDS011;65462;52.148;7.940;2023-02-18T01:24:32;31.07;;;16.97;;
76582;SDS011;65462;52.148;7.940;2023-02-18T01:26:57;32.87;;;17.53;;
76582;SDS011;65462;52.148;7.940;2023-02-18T01:29:23;34.87;;;17.60;;
76582;SDS011;65462;52.148;7.940;2023-02-18T01:31:48;31.90;;;17.00;;
76582;SDS011;65462;52.148;7.940;2023-02-18T01:34:13;29.30;;;17.40;;
76582;SDS011;65462;52.148;7.940;2023-02-18T01:36:39;33.17;;;17.70;;
76582;SDS011;65462;52.148;7.940;2023-02-18T01:39:04;27.03;;;17.03;;
76582;SDS011;65462;52.148;7.940;2023-02-18T01:41:30;33.13;;;17.10;;
76582;SDS011;65462;52.148;7.940;2023-02-18T01:44:15;35.23;;;18.27;;
76582;SDS011;65462;52.148;7.940;2023-02-18T01:46:43;32.73;;;17.63;;
76582;SDS011;65462;52.148;7.940;2023-02-18T01:49:08;33.93;;;18.90;;
76582;SDS011;65462;52.148;7.940;2023-02-18T01:51:37;35.23;;;18.03;;
76582;SDS011;65462;52.148;7.940;2023-02-18T01:54:06;38.20;;;19.37;;
76582;SDS011;65462;52.148;7.940;2023-02-18T01:56:38;33.43;;;18.20;;
76582;SDS011;65462;52.148;7.940;2023-02-18T01:59:20;31.93;;;18.47;;
76582;SDS011;65462;52.148;7.940;2023-02-18T02:01:49;35.57;;;18.50;;
76582;SDS011;65462;52.148;7.940;2023-02-18T02:04:15;31.10;;;18.27;;
76582;SDS011;65462;52.148;7.940;2023-02-18T02:06:41;35.03;;;19.10;;
76582;SDS011;65462;52.148;7.940;2023-02-18T02:09:07;37.87;;;19.70;;
76582;SDS011;65462;52.148;7.940;2023-02-18T02:28:58;33.53;;;19.13;;
76582;SDS011;65462;52.148;7.940;2023-02-18T02:31:37;33.65;;;18.73;;
76582;SDS011;65462;52.148;7.940;2023-02-18T02:39:53;37.50;;;20.03;;
76582;SDS011;65462;52.148;7.940;2023-02-18T02:42:29;36.03;;;20.80;;
76582;SDS011;65462;52.148;7.940;2023-02-18T02:45:15;37.28;;;20.50;;
76582;SDS011;65462;52.148;7.940;2023-02-18T02:47:48;37.83;;;20.20;;
76582;SDS011;65462;52.148;7.940;2023-02-18T02:50:21;34.40;;;20.17;;
76582;SDS011;65462;52.148;7.940;2023-02-18T02:52:56;36.57;;;19.97;;
76582;SDS011;65462;52.148;7.940;2023-02-18T02:55:26;35.60;;;19.87;;
76582;SDS011;65462;52.148;7.940;2023-02-18T02:57:52;42.47;;;19.97;;
76582;SDS011;65462;52.148;7.940;2023-02-18T03:00:20;38.60;;;22.00;;
76582;SDS011;65462;52.148;7.940;2023-02-18T03:08:37;39.53;;;19.50;;
76582;SDS011;65462;52.148;7.940;2023-02-18T03:11:14;40.92;;;20.60;;
76582;SDS011;65462;52.148;7.940;2023-02-18T03:16:42;40.53;;;20.00;;
76582;SDS011;65462;52.148;7.940;2023-02-18T03:21:52;39.72;;;19.75;;
76582;SDS011;65462;52.148;7.940;2023-02-18T03:27:00;37.83;;;19.27;;
76582;SDS011;65462;52.148;7.940;2023-02-18T03:29:30;37.28;;;19.30;;
76582;SDS011;65462;52.148;7.940;2023-02-18T03:31:59;35.85;;;18.13;;
76582;SDS011;65462;52.148;7.940;2023-02-18T03:34:29;41.83;;;19.52;;
76582;SDS011;65462;52.148;7.940;2023-02-18T03:36:59;42.50;;;19.67;;
76582;SDS011;65462;52.148;7.940;2023-02-18T03:39:26;38.17;;;19.95;;
76582;SDS011;65462;52.148;7.940;2023-02-18T03:41:54;43.92;;;19.00;;
76582;SDS011;65462;52.148;7.940;2023-02-18T03:44:20;36.88;;;17.98;;
76582;SDS011;65462;52.148;7.940;2023-02-18T03:46:45;39.15;;;18.85;;
76582;SDS011;65462;52.148;7.940;2023-02-18T03:49:11;36.55;;;18.15;;
76582;SDS011;65462;52.148;7.940;2023-02-18T03:51:38;41.80;;;18.35;;
76582;SDS011;65462;52.148;7.940;2023-02-18T03:54:03;37.05;;;18.02;;
76582;SDS011;65462;52.148;7.940;2023-02-18T03:56:29;35.92;;;17.63;;
76582;SDS011;65462;52.148;7.940;2023-02-18T03:58:54;43.03;;;18.63;;
76582;SDS011;65462;52.148;7.940;2023-02-18T04:01:19;35.58;;;17.50;;
76582;SDS011;65462;52.148;7.940;2023-02-18T04:03:45;36.97;;;16.88;;
76582;SDS011;65462;52.148;7.940;2023-02-18T04:06:10;34.03;;;16.42;;
76582;SDS011;65462;52.148;7.940;2023-02-18T04:08:35;33.42;;;16.50;;
76582;SDS011;65462;52.148;7.940;2023-02-18T04:11:01;33.78;;;16.88;;
76582;SDS011;65462;52.148;7.940;2023-02-18T04:13:26;36.30;;;16.80;;
76582;SDS011;65462;52.148;7.940;2023-02-18T04:15:52;29.90;;;15.95;;
76582;SDS011;65462;52.148;7.940;2023-02-18T04:18:17;34.03;;;15.02;;
76582;SDS011;65462;52.148;7.940;2023-02-18T04:20:43;32.33;;;16.38;;
76582;SDS011;65462;52.148;7.940;2023-02-18T04:23:10;27.15;;;14.25;;
76582;SDS011;65462;52.148;7.940;2023-02-18T04:25:35;27.02;;;14.50;;
76582;SDS011;65462;52.148;7.940;2023-02-18T04:28:01;28.63;;;13.75;;
76582;SDS011;65462;52.148;7.940;2023-02-18T04:30:26;32.17;;;14.75;;
76582;SDS011;65462;52.148;7.940;2023-02-18T04:32:52;28.20;;;13.77;;
76582;SDS011;65462;52.148;7.940;2023-02-18T04:35:17;32.30;;;13.48;;
76582;SDS011;65462;52.148;7.940;2023-02-18T04:37:43;26.45;;;13.65;;
76582;SDS011;65462;52.148;7.940;2023-02-18T04:40:08;24.13;;;13.32;;
76582;SDS011;65462;52.148;7.940;2023-02-18T04:42:34;23.75;;;12.10;;
76582;SDS011;65462;52.148;7.940;2023-02-18T04:45:00;22.48;;;11.43;;
76582;SDS011;65462;52.148;7.940;2023-02-18T04:47:25;23.08;;;11.38;;
76582;SDS011;65462;52.148;7.940;2023-02-18T04:49:51;21.30;;;11.05;;
76582;SDS011;65462;52.148;7.940;2023-02-18T04:52:16;22.17;;;11.43;;
76582;SDS011;65462;52.148;7.940;2023-02-18T04:54:42;20.17;;;10.77;;
76582;SDS011;65462;52.148;7.940;2023-02-18T04:57:08;20.15;;;11.05;;
76582;SDS011;65462;52.148;7.940;2023-02-18T04:59:33;17.45;;;9.40;;
76582;SDS011;65462;52.148;7.940;2023-02-18T05:01:58;16.58;;;9.65;;
76582;SDS011;65462;52.148;7.940;2023-02-18T05:04:24;18.42;;;10.35;;
76582;SDS011;65462;52.148;7.940;2023-02-18T05:06:49;16.63;;;9.93;;
76582;SDS011;65462;52.148;7.940;2023-02-18T05:09:15;15.98;;;9.25;;
76582;SDS011;65462;52.148;7.940;2023-02-18T05:11:41;16.77;;;8.93;;
76582;SDS011;65462;52.148;7.940;2023-02-18T05:14:07;14.43;;;8.98;;
76582;SDS011;65462;52.148;7.940;2023-02-18T05:16:32;15.75;;;8.73;;
76582;SDS011;65462;52.148;7.940;2023-02-18T05:18:58;15.82;;;8.98;;
76582;SDS011;65462;52.148;7.940;2023-02-18T05:21:23;15.15;;;8.05;;
76582;SDS011;65462;52.148;7.940;2023-02-18T05:23:48;13.98;;;7.97;;
76582;SDS011;65462;52.148;7.940;2023-02-18T05:26:13;12.32;;;7.43;;
76582;SDS011;65462;52.148;7.940;2023-02-18T05:28:39;13.40;;;6.93;;
76582;SDS011;65462;52.148;7.940;2023-02-18T05:31:04;12.65;;;7.32;;
76582;SDS011;65462;52.148;7.940;2023-02-18T05:33:29;11.18;;;6.63;;
76582;SDS011;65462;52.148;7.940;2023-02-18T05:35:55;12.85;;;7.07;;
76582;SDS011;65462;52.148;7.940;2023-02-18T05:38:20;12.50;;;7.38;;
76582;SDS011;65462;52.148;7.940;2023-02-18T05:40:45;11.60;;;6.82;;
76582;SDS011;65462;52.148;7.940;2023-02-18T05:43:11;11.30;;;6.65;;
76582;SDS011;65462;52.148;7.940;2023-02-18T05:45:36;11.57;;;6.75;;
76582;SDS011;65462;52.148;7.940;2023-02-18T05:48:02;14.38;;;6.97;;
76582;SDS011;65462;52.148;7.940;2023-02-18T05:50:27;12.60;;;6.85;;
76582;SDS011;65462;52.148;7.940;2023-02-18T05:52:53;11.90;;;6.43;;
76582;SDS011;65462;52.148;7.940;2023-02-18T05:55:18;12.82;;;6.18;;
76582;SDS011;65462;52.148;7.940;2023-02-18T05:57:43;10.48;;;6.10;;
76582;SDS011;65462;52.148;7.940;2023-02-18T06:00:09;9.25;;;5.40;;
76582;SDS011;65462;52.148;7.940;2023-02-18T06:02:35;10.05;;;5.93;;
76582;SDS011;65462;52.148;7.940;2023-02-18T06:05:00;9.95;;;5.43;;
76582;SDS011;65462;52.148;7.940;2023-02-18T06:07:26;9.60;;;5.75;;
76582;SDS011;65462;52.148;7.940;2023-02-18T06:09:51;11.07;;;5.53;;
76582;SDS011;65462;52.148;7.940;2023-02-18T06:12:17;8.27;;;5.05;;
76582;SDS011;65462;52.148;7.940;2023-02-18T06:14:43;10.65;;;5.32;;
76582;SDS011;65462;52.148;7.940;2023-02-18T06:17:09;8.18;;;4.72;;
76582;SDS011;65462;52.148;7.940;2023-02-18T06:19:36;9.25;;;4.65;;
76582;SDS011;65462;52.148;7.940;2023-02-18T06:22:02;8.00;;;4.57;;
76582;SDS011;65462;52.148;7.940;2023-02-18T06:24:28;9.50;;;5.05;;
76582;SDS011;65462;52.148;7.940;2023-02-18T06:26:53;8.50;;;4.78;;
76582;SDS011;65462;52.148;7.940;2023-02-18T06:29:18;7.45;;;3.80;;
76582;SDS011;65462;52.148;7.940;2023-02-18T06:31:43;6.88;;;3.33;;
76582;SDS011;65462;52.148;7.940;2023-02-18T06:34:09;6.97;;;3.35;;
76582;SDS011;65462;52.148;7.940;2023-02-18T06:36:34;6.38;;;3.60;;
76582;SDS011;65462;52.148;7.940;2023-02-18T06:39:00;6.68;;;3.30;;
76582;SDS011;65462;52.148;7.940;2023-02-18T06:41:27;5.93;;;3.00;;
76582;SDS011;65462;52.148;7.940;2023-02-18T06:43:52;5.43;;;2.60;;
76582;SDS011;65462;52.148;7.940;2023-02-18T06:46:17;4.90;;;2.95;;
76582;SDS011;65462;52.148;7.940;2023-02-18T06:48:43;7.28;;;3.00;;
76582;SDS011;65462;52.148;7.940;2023-02-18T06:51:08;5.22;;;2.72;;
76582;SDS011;65462;52.148;7.940;2023-02-18T06:53:33;6.40;;;2.88;;
76582;SDS011;65462;52.148;7.940;2023-02-18T06:55:59;4.60;;;2.70;;
76582;SDS011;65462;52.148;7.940;2023-02-18T06:58:24;5.40;;;2.40;;
76582;SDS011;65462;52.148;7.940;2023-02-18T07:00:49;5.47;;;2.70;;
76582;SDS011;65462;52.148;7.940;2023-02-18T07:03:15;4.20;;;2.40;;
76582;SDS011;65462;52.148;7.940;2023-02-18T07:05:40;4.93;;;2.33;;
76582;SDS011;65462;52.148;7.940;2023-02-18T07:08:06;4.38;;;2.22;;
76582;SDS011;65462;52.148;7.940;2023-02-18T07:10:32;3.45;;;2.00;;
76582;SDS011;65462;52.148;7.940;2023-02-18T07:12:57;3.50;;;1.90;;
76582;SDS011;65462;52.148;7.940;2023-02-18T07:15:22;3.30;;;1.80;;
76582;SDS011;65462;52.148;7.940;2023-02-18T07:17:49;4.43;;;2.03;;
76582;SDS011;65462;52.148;7.940;2023-02-18T07:20:15;3.25;;;1.70;;
76582;SDS011;65462;52.148;7.940;2023-02-18T07:22:40;2.67;;;1.60;;
76582;SDS011;65462;52.148;7.940;2023-02-18T07:25:06;3.60;;;2.05;;
76582;SDS011;65462;52.148;7.940;2023-02-18T07:27:31;3.40;;;1.88;;
76582;SDS011;65462;52.148;7.940;2023-02-18T07:29:56;3.85;;;2.08;;
76582;SDS011;65462;52.148;7.940;2023-02-18T07:32:22;3.40;;;2.00;;
76582;SDS011;65462;52.148;7.940;2023-02-18T07:34:47;2.90;;;1.77;;
76582;SDS011;65462;52.148;7.940;2023-02-18T07:37:15;3.85;;;1.55;;
76582;SDS011;65462;52.148;7.940;2023-02-18T07:39:41;2.65;;;1.50;;
76582;SDS011;65462;52.148;7.940;2023-02-18T07:42:07;2.50;;;1.48;;
76582;SDS011;65462;52.148;7.940;2023-02-18T07:44:33;2.55;;;1.60;;
76582;SDS011;65462;52.148;7.940;2023-02-18T07:46:58;2.75;;;1.50;;
76582;SDS011;65462;52.148;7.940;2023-02-18T07:49:23;2.28;;;1.20;;
76582;SDS011;65462;52.148;7.940;2023-02-18T07:51:49;2.67;;;1.27;;
76582;SDS011;65462;52.148;7.940;2023-02-18T07:54:15;3.00;;;1.27;;
76582;SDS011;65462;52.148;7.940;2023-02-18T07:56:42;1.63;;;1.23;;
76582;SDS011;65462;52.148;7.940;2023-02-18T07:59:07;1.77;;;1.08;;
76582;SDS011;65462;52.148;7.940;2023-02-18T08:01:33;2.05;;;1.00;;
76582;SDS011;65462;52.148;7.940;2023-02-18T08:03:58;3.42;;;0.98;;
76582;SDS011;65462;52.148;7.940;2023-02-18T08:06:25;1.70;;;0.95;;
76582;SDS011;65462;52.148;7.940;2023-02-18T08:08:55;1.60;;;1.05;;
76582;SDS011;65462;52.148;7.940;2023-02-18T08:11:20;1.42;;;0.82;;
76582;SDS011;65462;52.148;7.940;2023-02-18T08:13:46;2.10;;;1.15;;
76582;SDS011;65462;52.148;7.940;2023-02-18T08:16:12;1.98;;;1.13;;
76582;SDS011;65462;52.148;7.940;2023-02-18T08:18:37;1.92;;;1.20;;
76582;SDS011;65462;52.148;7.940;2023-02-18T08:21:03;1.55;;;0.95;;
76582;SDS011;65462;52.148;7.940;2023-02-18T08:23:28;1.52;;;0.98;;
76582;SDS011;65462;52.148;7.940;2023-02-18T08:25:54;1.50;;;0.90;;
76582;SDS011;65462;52.148;7.940;2023-02-18T08:28:19;1.75;;;1.05;;
76582;SDS011;65462;52.148;7.940;2023-02-18T08:30:50;1.30;;;0.80;;
76582;SDS011;65462;52.148;7.940;2023-02-18T08:33:17;2.20;;;0.95;;
76582;SDS011;65462;52.148;7.940;2023-02-18T08:35:43;1.65;;;0.80;;
76582;SDS011;65462;52.148;7.940;2023-02-18T08:38:09;2.40;;;1.17;;
76582;SDS011;65462;52.148;7.940;2023-02-18T08:40:35;1.40;;;0.90;;
76582;SDS011;65462;52.148;7.940;2023-02-18T08:43:00;1.13;;;0.70;;
76582;SDS011;65462;52.148;7.940;2023-02-18T08:45:25;1.45;;;0.70;;
76582;SDS011;65462;52.148;7.940;2023-02-18T08:47:51;1.20;;;0.80;;
76582;SDS011;65462;52.148;7.940;2023-02-18T08:50:16;1.13;;;0.70;;
76582;SDS011;65462;52.148;7.940;2023-02-18T08:52:42;2.25;;;0.85;;
76582;SDS011;65462;52.148;7.940;2023-02-18T08:55:08;1.27;;;0.68;;
76582;SDS011;65462;52.148;7.940;2023-02-18T08:57:33;1.10;;;0.70;;
76582;SDS011;65462;52.148;7.940;2023-02-18T08:59:58;0.85;;;0.63;;
76582;SDS011;65462;52.148;7.940;2023-02-18T09:02:24;0.98;;;0.63;;
76582;SDS011;65462;52.148;7.940;2023-02-18T09:04:49;0.80;;;0.70;;
76582;SDS011;65462;52.148;7.940;2023-02-18T09:07:14;1.52;;;1.00;;
76582;SDS011;65462;52.148;7.940;2023-02-18T09:09:40;1.13;;;0.68;;
76582;SDS011;65462;52.148;7.940;2023-02-18T09:12:06;1.05;;;0.70;;
76582;SDS011;65462;52.148;7.940;2023-02-18T09:14:31;1.00;;;0.68;;
76582;SDS011;65462;52.148;7.940;2023-02-18T09:16:57;1.25;;;0.80;;
76582;SDS011;65462;52.148;7.940;2023-02-18T09:19:22;1.33;;;0.60;;
76582;SDS011;65462;52.148;7.940;2023-02-18T09:21:48;1.00;;;0.60;;
76582;SDS011;65462;52.148;7.940;2023-02-18T09:24:14;0.85;;;0.63;;
76582;SDS011;65462;52.148;7.940;2023-02-18T09:26:39;2.08;;;0.57;;
76582;SDS011;65462;52.148;7.940;2023-02-18T09:29:04;0.85;;;0.60;;
76582;SDS011;65462;52.148;7.940;2023-02-18T09:31:30;1.42;;;0.60;;
76582;SDS011;65462;52.148;7.940;2023-02-18T09:33:58;1.15;;;0.70;;
76582;SDS011;65462;52.148;7.940;2023-02-18T09:36:25;1.13;;;0.63;;
76582;SDS011;65462;52.148;7.940;2023-02-18T09:38:51;0.80;;;0.70;;
76582;SDS011;65462;52.148;7.940;2023-02-18T09:41:23;1.02;;;0.63;;
76582;SDS011;65462;52.148;7.940;2023-02-18T09:43:58;1.45;;;0.90;;
76582;SDS011;65462;52.148;7.940;2023-02-18T09:46:40;1.05;;;0.65;;
76582;SDS011;65462;52.148;7.940;2023-02-18T09:49:15;1.05;;;0.73;;
76582;SDS011;65462;52.148;7.940;2023-02-18T09:51:43;2.43;;;0.90;;
76582;SDS011;65462;52.148;7.940;2023-02-18T09:54:10;1.23;;;0.82;;
76582;SDS011;65462;52.148;7.940;2023-02-18T09:56:38;1.73;;;1.13;;
76582;SDS011;65462;52.148;7.940;2023-02-18T09:59:05;1.35;;;0.90;;
76582;SDS011;65462;52.148;7.940;2023-02-18T10:01:37;1.65;;;0.98;;
76582;SDS011;65462;52.148;7.940;2023-02-18T10:07:02;1.90;;;0.90;;
76582;SDS011;65462;52.148;7.940;2023-02-18T10:09:32;1.30;;;0.90;;
76582;SDS011;65462;52.148;7.940;2023-02-18T10:12:15;1.40;;;0.88;;
76582;SDS011;65462;52.148;7.940;2023-02-18T10:14:45;1.98;;;1.00;;
76582;SDS011;65462;52.148;7.940;2023-02-18T10:17:17;2.00;;;1.20;;
76582;SDS011;65462;52.148;7.940;2023-02-18T10:19:43;2.17;;;1.45;;
76582;SDS011;65462;52.148;7.940;2023-02-18T10:22:12;3.30;;;2.00;;
76582;SDS011;65462;52.148;7.940;2023-02-18T10:24:40;5.90;;;1.98;;
76582;SDS011;65462;52.148;7.940;2023-02-18T10:27:08;6.97;;;3.05;;
76582;SDS011;65462;52.148;7.940;2023-02-18T10:29:37;5.70;;;2.97;;
76582;SDS011;65462;52.148;7.940;2023-02-18T10:34:50;4.90;;;3.05;;
76582;SDS011;65462;52.148;7.940;2023-02-18T10:40:24;6.68;;;3.40;;
76582;SDS011;65462;52.148;7.940;2023-02-18T10:43:05;6.85;;;3.40;;
76582;SDS011;65462;52.148;7.940;2023-02-18T10:45:53;5.85;;;2.90;;
76582;SDS011;65462;52.148;7.940;2023-02-18T10:50:57;6.87;;;2.60;;
76582;SDS011;65462;52.148;7.940;2023-02-18T10:53:31;3.72;;;2.28;;
76582;SDS011;65462;52.148;7.940;2023-02-18T10:55:58;6.75;;;3.20;;
76582;SDS011;65462;52.148;7.940;2023-02-18T10:58:26;7.07;;;2.85;;
76582;SDS011;65462;52.148;7.940;2023-02-18T11:00:57;6.30;;;3.08;;
76582;SDS011;65462;52.148;7.940;2023-02-18T11:06:08;5.13;;;2.80;;
76582;SDS011;65462;52.148;7.940;2023-02-18T11:08:42;4.00;;;2.38;;
76582;SDS011;65462;52.148;7.940;2023-02-18T11:11:17;4.20;;;2.37;;
76582;SDS011;65462;52.148;7.940;2023-02-18T11:13:51;4.60;;;2.50;;
76582;SDS011;65462;52.148;7.940;2023-02-18T11:16:20;4.65;;;2.40;;
76582;SDS011;65462;52.148;7.940;2023-02-18T11:18:47;4.67;;;2.20;;
76582;SDS011;65462;52.148;7.940;2023-02-18T11:21:29;3.97;;;2.33;;
76582;SDS011;65462;52.148;7.940;2023-02-18T11:26:30;3.33;;;2.33;;
76582;SDS011;65462;52.148;7.940;2023-02-18T11:29:02;3.17;;;1.73;;
76582;SDS011;65462;52.148;7.940;2023-02-18T11:34:04;3.07;;;1.90;;
76582;SDS011;65462;52.148;7.940;2023-02-18T11:36:31;4.17;;;2.17;;
76582;SDS011;65462;52.148;7.940;2023-02-18T11:39:06;2.75;;;1.95;;
76582;SDS011;65462;52.148;7.940;2023-02-18T11:41:45;3.53;;;1.88;;
76582;SDS011;65462;52.148;7.940;2023-02-18T11:49:23;2.60;;;1.70;;
76582;SDS011;65462;52.148;7.940;2023-02-18T11:51:49;3.40;;;2.00;;
76582;SDS011;65462;52.148;7.940;2023-02-18T11:54:29;3.60;;;2.17;;
76582;SDS011;65462;52.148;7.940;2023-02-18T11:56:59;4.00;;;1.90;;
76582;SDS011;65462;52.148;7.940;2023-02-18T11:59:28;2.30;;;1.53;;
76582;SDS011;65462;52.148;7.940;2023-02-18T12:02:02;4.00;;;1.87;;
76582;SDS011;65462;52.148;7.940;2023-02-18T12:04:49;3.30;;;2.10;;
76582;SDS011;65462;52.148;7.940;2023-02-18T12:07:23;3.23;;;1.80;;
76582;SDS011;65462;52.148;7.940;2023-02-18T12:09:54;3.27;;;2.10;;
76582;SDS011;65462;52.148;7.940;2023-02-18T12:12:33;2.97;;;2.00;;
76582;SDS011;65462;52.148;7.940;2023-02-18T12:15:08;3.90;;;2.10;;
76582;SDS011;65462;52.148;7.940;2023-02-18T12:22:58;3.70;;;2.27;;
76582;SDS011;65462;52.148;7.940;2023-02-18T12:25:32;4.88;;;2.60;;
76582;SDS011;65462;52.148;7.940;2023-02-18T12:30:45;4.00;;;2.60;;
76582;SDS011;65462;52.148;7.940;2023-02-18T12:39:01;5.15;;;3.13;;
76582;SDS011;65462;52.148;7.940;2023-02-18T12:47:09;6.80;;;3.38;;
76582;SDS011;65462;52.148;7.940;2023-02-18T12:55:26;9.40;;;3.57;;
76582;SDS011;65462;52.148;7.940;2023-02-18T13:11:51;254.73;;;165.03;;
76582;SDS011;65462;52.148;7.940;2023-02-18T13:14:31;1395.75;;;740.78;;
76582;SDS011;65462;52.148;7.940;2023-02-18T13:17:01;1999.90;;;937.58;;
76582;SDS011;65462;52.148;7.940;2023-02-18T13:19:44;1989.47;;;930.37;;
76582;SDS011;65462;52.148;7.940;2023-02-18T13:22:14;1738.45;;;899.15;;
76582;SDS011;65462;52.148;7.940;2023-02-18T13:24:42;835.60;;;599.10;;
76582;SDS011;65462;52.148;7.940;2023-02-18T13:29:51;1683.25;;;802.95;;
76582;SDS011;65462;52.148;7.940;2023-02-18T13:32:30;1999.90;;;999.90;;
76582;SDS011;65462;52.148;7.940;2023-02-18T13:35:24;1158.28;;;728.50;;
76582;SDS011;65462;52.148;7.940;2023-02-18T13:40:25;500.92;;;371.50;;
76582;SDS011;65462;52.148;7.940;2023-02-18T13:42:54;239.10;;;166.32;;
76582;SDS011;65462;52.148;7.940;2023-02-18T13:48:35;487.17;;;388.55;;
76582;SDS011;65462;52.148;7.940;2023-02-18T13:51:13;75.32;;;61.47;;
76582;SDS011;65462;52.148;7.940;2023-02-18T13:53:42;80.60;;;72.25;;
76582;SDS011;65462;52.148;7.940;2023-02-18T14:01:20;202.60;;;159.05;;
76582;SDS011;65462;52.148;7.940;2023-02-18T14:03:52;378.95;;;277.10;;
76582;SDS011;65462;52.148;7.940;2023-02-18T14:06:24;532.22;;;397.67;;
76582;SDS011;65462;52.148;7.940;2023-02-18T14:08:51;250.93;;;190.35;;
76582;SDS011;65462;52.148;7.940;2023-02-18T14:27:37;772.30;;;545.65;;
76582;SDS011;65462;52.148;7.940;2023-02-18T14:30:04;157.32;;;128.05;;
76582;SDS011;65462;52.148;7.940;2023-02-18T14:32:39;146.15;;;125.72;;
76582;SDS011;65462;52.148;7.940;2023-02-18T14:38:38;72.63;;;65.20;;
76582;SDS011;65462;52.148;7.940;2023-02-18T14:43:49;110.97;;;83.95;;
76582;SDS011;65462;52.148;7.940;2023-02-18T14:51:52;255.85;;;228.00;;
76582;SDS011;65462;52.148;7.940;2023-02-18T14:54:20;77.80;;;69.75;;
76582;SDS011;65462;52.148;7.940;2023-02-18T14:56:55;72.18;;;64.97;;
76582;SDS011;65462;52.148;7.940;2023-02-18T14:59:28;109.05;;;95.18;;
76582;SDS011;65462;52.148;7.940;2023-02-18T15:01:58;249.35;;;223.82;;
76582;SDS011;65462;52.148;7.940;2023-02-18T15:04:24;113.22;;;82.20;;
76582;SDS011;65462;52.148;7.940;2023-02-18T15:07:03;261.27;;;214.93;;
76582;SDS011;65462;52.148;7.940;2023-02-18T15:09:33;144.60;;;124.10;;
76582;SDS011;65462;52.148;7.940;2023-02-18T15:12:02;92.40;;;82.05;;
76582;SDS011;65462;52.148;7.940;2023-02-18T15:14:31;33.80;;;30.10;;
76582;SDS011;65462;52.148;7.940;2023-02-18T15:17:00;82.53;;;72.82;;
76582;SDS011;65462;52.148;7.940;2023-02-18T15:19:28;167.90;;;135.48;;
76582;SDS011;65462;52.148;7.940;2023-02-18T15:21:56;210.57;;;176.07;;
76582;SDS011;65462;52.148;7.940;2023-02-18T15:29:55;1247.75;;;783.47;;
76582;SDS011;65462;52.148;7.940;2023-02-18T15:32:23;1056.97;;;759.70;;
76582;SDS011;65462;52.148;7.940;2023-02-18T15:34:58;504.13;;;431.08;;
76582;SDS011;65462;52.148;7.940;2023-02-18T15:37:25;1419.05;;;887.55;;
76582;SDS011;65462;52.148;7.940;2023-02-18T15:39:52;1739.38;;;938.53;;
76582;SDS011;65462;52.148;7.940;2023-02-18T15:42:23;1202.63;;;816.85;;
76582;SDS011;65462;52.148;7.940;2023-02-18T15:45:08;1999.90;;;999.90;;
76582;SDS011;65462;52.148;7.940;2023-02-18T15:47:56;1488.47;;;912.88;;
76582;SDS011;65462;52.148;7.940;2023-02-18T15:50:24;852.80;;;711.17;;
76582;SDS011;65462;52.148;7.940;2023-02-18T15:52:53;665.20;;;586.35;;
76582;SDS011;65462;52.148;7.940;2023-02-18T15:55:30;536.17;;;478.45;;
76582;SDS011;65462;52.148;7.940;2023-02-18T15:58:08;320.20;;;287.83;;
76582;SDS011;65462;52.148;7.940;2023-02-18T16:00:39;86.57;;;76.97;;
76582;SDS011;65462;52.148;7.940;2023-02-18T16:03:12;72.55;;;57.67;;
76582;SDS011;65462;52.148;7.940;2023-02-18T16:05:43;353.95;;;262.60;;
76582;SDS011;65462;52.148;7.940;2023-02-18T16:08:16;1420.25;;;863.05;;
76582;SDS011;65462;52.148;7.940;2023-02-18T16:10:49;982.75;;;722.40;;
76582;SDS011;65462;52.148;7.940;2023-02-18T16:13:22;1001.03;;;731.58;;
76582;SDS011;65462;52.148;7.940;2023-02-18T16:15:48;802.78;;;658.05;;
76582;SDS011;65462;52.148;7.940;2023-02-18T16:18:22;889.40;;;702.40;;
76582;SDS011;65462;52.148;7.940;2023-02-18T16:28:48;331.30;;;279.17;;
76582;SDS011;65462;52.148;7.940;2023-02-18T16:31:15;398.92;;;350.23;;
76582;SDS011;65462;52.148;7.940;2023-02-18T16:33:41;82.05;;;73.40;;
76582;SDS011;65462;52.148;7.940;2023-02-18T16:36:09;475.80;;;414.55;;
76582;SDS011;65462;52.148;7.940;2023-02-18T16:38:39;665.50;;;507.92;;
76582;SDS011;65462;52.148;7.940;2023-02-18T16:41:04;1184.35;;;712.38;;
76582;SDS011;65462;52.148;7.940;2023-02-18T16:43:29;905.42;;;673.88;;
76582;SDS011;65462;52.148;7.940;2023-02-18T16:45:57;484.05;;;379.08;;
76582;SDS011;65462;52.148;7.940;2023-02-18T16:48:29;552.78;;;429.15;;
76582;SDS011;65462;52.148;7.940;2023-02-18T16:50:58;394.02;;;295.90;;
76582;SDS011;65462;52.148;7.940;2023-02-18T16:53:25;500.65;;;440.95;;
76582;SDS011;65462;52.148;7.940;2023-02-18T16:55:51;1124.05;;;738.55;;
76582;SDS011;65462;52.148;7.940;2023-02-18T16:58:16;1602.00;;;886.67;;
76582;SDS011;65462;52.148;7.940;2023-02-18T17:00:42;1124.15;;;762.05;;
76582;SDS011;65462;52.148;7.940;2023-02-18T17:03:08;1103.10;;;733.35;;
76582;SDS011;65462;52.148;7.940;2023-02-18T17:05:34;1253.88;;;821.22;;
76582;SDS011;65462;52.148;7.940;2023-02-18T17:08:10;603.88;;;496.48;;
76582;SDS011;65462;52.148;7.940;2023-02-18T17:10:40;498.88;;;392.85;;